Time;durP1;ratioP1;P1;durP2;ratioP2;P2;SDS_P1;SDS_P2;PMS_P1;PMS_P2;Temp;Humidity;BMP_temperature;BMP_pressure;BME280_temperature;BME280_humidity;BME280_pressure;Samples;Min_cycle;Max_cycle;Signal;HPM_P1;HPM_P2
2021/07/21 00:00:37;;;;;;;9.07;8.18;;;;;;;;;;3584944;39;20219;-81
2021/07/21 00:03:05;;;;;;;8.73;7.82;;;;;;;;;;3593459;39;20643;-79
2021/07/21 00:05:33;;;;;;;8.82;7.80;;;;;;;;;;3593034;39;20234;-80
2021/07/21 00:08:02;;;;;;;8.40;7.60;;;;;;;;;;3593230;39;20243;-82
2021/07/21 00:10:31;;;;;;;9.77;8.77;;;;;;;;;;3576534;39;20780;-80
2021/07/21 00:15:50;;;;;;;8.90;7.93;;;;;;;;;;3584657;39;20677;-81
2021/07/21 00:18:20;;;;;;;10.07;8.63;;;;;;;;;;3584567;39;20806;-81
2021/07/21 00:20:48;;;;;;;9.32;7.90;;;;;;;;;;3584672;39;20239;-79
2021/07/21 00:23:17;;;;;;;8.32;7.47;;;;;;;;;;3584669;39;20789;-80
2021/07/21 00:25:45;;;;;;;10.05;8.85;;;;;;;;;;3584686;39;20238;-81
2021/07/21 00:28:18;;;;;;;8.68;7.65;;;;;;;;;;3593204;39;20275;-79
2021/07/21 00:30:45;;;;;;;11.68;8.55;;;;;;;;;;3593208;39;20245;-81
2021/07/21 00:33:14;;;;;;;9.90;8.32;;;;;;;;;;3593305;39;20223;-81
2021/07/21 00:35:42;;;;;;;9.27;7.78;;;;;;;;;;3593121;39;20254;-81
2021/07/21 00:38:10;;;;;;;10.18;8.43;;;;;;;;;;3593091;39;20229;-81
2021/07/21 00:40:39;;;;;;;9.48;8.48;;;;;;;;;;3584463;39;20250;-83
2021/07/21 00:43:07;;;;;;;8.50;7.70;;;;;;;;;;3584401;39;20281;-84
2021/07/21 00:45:34;;;;;;;12.70;7.85;;;;;;;;;;3593250;39;20691;-81
2021/07/21 00:48:02;;;;;;;10.52;8.07;;;;;;;;;;3584483;39;20271;-81
2021/07/21 00:50:30;;;;;;;9.15;8.18;;;;;;;;;;3584424;39;20215;-81
2021/07/21 00:52:58;;;;;;;8.57;7.45;;;;;;;;;;3584484;39;20754;-81
2021/07/21 00:55:27;;;;;;;8.65;7.15;;;;;;;;;;3587916;39;20228;-79
2021/07/21 00:57:59;;;;;;;8.82;7.65;;;;;;;;;;3582951;40;20251;-82
2021/07/21 01:00:30;;;;;;;8.90;7.38;;;;;;;;;;3573963;40;20797;-80
2021/07/21 01:02:58;;;;;;;8.02;7.32;;;;;;;;;;3574580;40;20212;-81
2021/07/21 01:05:28;;;;;;;10.98;7.68;;;;;;;;;;3574586;40;20219;-81
2021/07/21 01:08:00;;;;;;;8.77;7.88;;;;;;;;;;3574221;40;20239;-81
2021/07/21 01:10:31;;;;;;;10.13;7.50;;;;;;;;;;3574512;40;20227;-79
2021/07/21 01:13:03;;;;;;;10.52;8.57;;;;;;;;;;3574409;40;20232;-81
2021/07/21 01:15:37;;;;;;;10.77;8.70;;;;;;;;;;3574382;40;20220;-81
2021/07/21 01:18:07;;;;;;;8.50;7.60;;;;;;;;;;3565891;40;20228;-80
2021/07/21 01:20:53;;;;;;;7.78;6.60;;;;;;;;;;3574133;40;20268;-80
2021/07/21 01:23:35;;;;;;;8.70;7.80;;;;;;;;;;3565982;40;20248;-81
2021/07/21 01:26:08;;;;;;;10.10;8.82;;;;;;;;;;3572762;40;20248;-81
2021/07/21 01:28:37;;;;;;;9.82;7.47;;;;;;;;;;3582535;40;20247;-81
2021/07/21 01:31:08;;;;;;;8.82;7.93;;;;;;;;;;3574305;40;20235;-81
2021/07/21 01:33:37;;;;;;;7.90;7.10;;;;;;;;;;3574368;40;20244;-81
2021/07/21 01:36:08;;;;;;;8.27;6.88;;;;;;;;;;3574176;40;20244;-81
2021/07/21 01:38:41;;;;;;;10.23;8.38;;;;;;;;;;3574073;40;20208;-79
2021/07/21 01:41:13;;;;;;;8.93;8.02;;;;;;;;;;3574260;40;20235;-83
2021/07/21 01:43:44;;;;;;;9.00;8.10;;;;;;;;;;3565883;40;20239;-80
2021/07/21 01:46:13;;;;;;;8.93;8.00;;;;;;;;;;3574215;40;20244;-80
2021/07/21 01:48:45;;;;;;;12.88;9.52;;;;;;;;;;3565886;40;20425;-80
2021/07/21 01:51:14;;;;;;;8.32;7.53;;;;;;;;;;3565804;40;20289;-80
2021/07/21 01:53:43;;;;;;;8.70;7.85;;;;;;;;;;3590786;40;20242;-81
2021/07/21 01:56:16;;;;;;;12.13;9.30;;;;;;;;;;3575702;40;20296;-80
2021/07/21 01:58:46;;;;;;;10.27;9.27;;;;;;;;;;3592625;40;20223;-81
2021/07/21 02:01:21;;;;;;;9.52;8.23;;;;;;;;;;3584193;40;20326;-80
2021/07/21 02:03:49;;;;;;;8.57;7.78;;;;;;;;;;3584076;39;20234;-81
2021/07/21 02:06:27;;;;;;;10.68;8.65;;;;;;;;;;3575018;40;20969;-81
2021/07/21 02:08:55;;;;;;;9.57;8.52;;;;;;;;;;3592561;40;20219;-81
2021/07/21 02:11:27;;;;;;;7.95;7.18;;;;;;;;;;3575568;40;20246;-81
2021/07/21 02:13:58;;;;;;;10.02;8.93;;;;;;;;;;3583870;40;20239;-80
2021/07/21 02:16:38;;;;;;;9.27;8.02;;;;;;;;;;3631662;23;20246;31
2021/07/21 02:19:09;;;;;;;8.88;7.30;;;;;;;;;;3566518;40;20249;-79
2021/07/21 02:21:54;;;;;;;11.38;8.77;;;;;;;;;;3560594;40;20270;-79
2021/07/21 02:24:22;;;;;;;10.63;9.55;;;;;;;;;;3547704;40;20724;-79
2021/07/21 02:27:15;;;;;;;13.73;9.68;;;;;;;;;;3553383;40;20669;-79
2021/07/21 02:29:46;;;;;;;9.45;8.55;;;;;;;;;;3542629;40;20218;-79
2021/07/21 02:32:16;;;;;;;10.40;8.95;;;;;;;;;;3542634;40;20235;-81
2021/07/21 02:34:44;;;;;;;9.48;8.38;;;;;;;;;;3534361;40;20246;-80
2021/07/21 02:37:15;;;;;;;9.73;8.80;;;;;;;;;;3542432;40;20273;-80
2021/07/21 02:39:46;;;;;;;8.95;7.47;;;;;;;;;;3542835;40;20258;-80
2021/07/21 02:42:14;;;;;;;9.98;8.98;;;;;;;;;;3542824;40;20237;-81
2021/07/21 02:44:47;;;;;;;9.70;8.27;;;;;;;;;;3542492;40;20679;-79
2021/07/21 02:47:14;;;;;;;9.68;8.27;;;;;;;;;;3542616;40;20293;-80
2021/07/21 02:49:46;;;;;;;9.55;8.65;;;;;;;;;;3542535;40;20694;-80
2021/07/21 02:52:16;;;;;;;10.75;9.07;;;;;;;;;;3544717;40;20246;-80
2021/07/21 02:55:04;;;;;;;10.23;9.23;;;;;;;;;;3552307;40;20238;-82
2021/07/21 02:57:36;;;;;;;9.75;8.75;;;;;;;;;;3559531;40;20279;-81
2021/07/21 03:00:11;;;;;;;10.77;9.65;;;;;;;;;;3552301;40;20240;-80
2021/07/21 03:02:39;;;;;;;10.40;9.30;;;;;;;;;;3552480;40;20336;-79
2021/07/21 03:05:10;;;;;;;10.05;8.38;;;;;;;;;;3552145;40;20757;-83
2021/07/21 03:07:46;;;;;;;12.48;8.25;;;;;;;;;;3552329;40;20237;-80
2021/07/21 03:10:19;;;;;;;9.90;8.25;;;;;;;;;;3552203;40;20249;-79
2021/07/21 03:13:01;;;;;;;10.52;9.32;;;;;;;;;;3552024;40;20258;-80
2021/07/21 03:15:37;;;;;;;14.32;9.57;;;;;;;;;;3543907;40;20248;-80
2021/07/21 03:18:05;;;;;;;11.13;9.18;;;;;;;;;;3544850;40;20242;-79
2021/07/21 03:20:36;;;;;;;10.57;8.52;;;;;;;;;;3553620;40;20242;-83
2021/07/21 03:23:10;;;;;;;10.55;9.05;;;;;;;;;;3553911;40;20228;-80
2021/07/21 03:25:41;;;;;;;10.30;9.20;;;;;;;;;;3553728;40;20233;-79
2021/07/21 03:28:10;;;;;;;10.30;8.43;;;;;;;;;;3553648;40;20237;-82
2021/07/21 03:30:55;;;;;;;10.07;9.00;;;;;;;;;;3553574;40;20264;-79
2021/07/21 03:33:25;;;;;;;11.85;10.32;;;;;;;;;;3553555;40;20273;-80
2021/07/21 03:36:02;;;;;;;10.07;9.07;;;;;;;;;;3553487;40;20758;-81
2021/07/21 03:38:50;;;;;;;13.02;8.95;;;;;;;;;;3553370;40;20249;-81
2021/07/21 03:41:26;;;;;;;11.68;9.65;;;;;;;;;;3553577;40;20233;-80
2021/07/21 03:43:54;;;;;;;12.23;10.45;;;;;;;;;;3553527;40;20234;-80
2021/07/21 03:46:25;;;;;;;14.85;10.05;;;;;;;;;;3553758;40;20238;-80
2021/07/21 03:48:54;;;;;;;10.52;9.20;;;;;;;;;;3553632;40;20338;-80
2021/07/21 03:51:41;;;;;;;12.75;10.48;;;;;;;;;;3553403;40;20289;-81
2021/07/21 03:54:27;;;;;;;9.70;8.70;;;;;;;;;;3553730;40;20226;-80
2021/07/21 03:57:14;;;;;;;12.85;10.38;;;;;;;;;;3561399;40;20300;-80
2021/07/21 03:59:42;;;;;;;11.48;9.27;;;;;;;;;;3553437;40;20238;-81
2021/07/21 04:02:12;;;;;;;11.80;10.25;;;;;;;;;;3545163;40;20241;-84
2021/07/21 04:04:40;;;;;;;11.55;9.43;;;;;;;;;;3553342;40;20773;-79
2021/07/21 04:07:08;;;;;;;15.18;9.98;;;;;;;;;;3569628;40;20249;-81
2021/07/21 04:09:49;;;;;;;13.35;11.60;;;;;;;;;;3545119;40;20292;-84
2021/07/21 04:12:17;;;;;;;14.23;12.68;;;;;;;;;;3553356;40;20248;-80
2021/07/21 04:14:58;;;;;;;13.88;10.98;;;;;;;;;;3553370;40;20253;-82
2021/07/21 04:17:38;;;;;;;13.10;11.70;;;;;;;;;;3553206;40;20249;-80
2021/07/21 04:20:12;;;;;;;13.73;10.77;;;;;;;;;;3553272;40;20225;-80
2021/07/21 04:22:42;;;;;;;13.60;11.15;;;;;;;;;;3553599;40;20242;-82
2021/07/21 04:25:12;;;;;;;11.00;9.90;;;;;;;;;;3553299;40;20725;-81
2021/07/21 04:27:40;;;;;;;12.05;10.38;;;;;;;;;;3553350;40;20222;-83
2021/07/21 04:30:16;;;;;;;11.32;9.23;;;;;;;;;;3553008;40;20226;-81
2021/07/21 04:32:47;;;;;;;13.43;10.82;;;;;;;;;;3569174;40;20281;-81
2021/07/21 04:35:16;;;;;;;15.63;11.10;;;;;;;;;;3553115;40;20683;-80
2021/07/21 04:38:06;;;;;;;15.63;11.05;;;;;;;;;;3552811;40;20238;-80
2021/07/21 04:40:57;;;;;;;14.68;12.05;;;;;;;;;;3543882;40;20234;-83
2021/07/21 04:43:27;;;;;;;12.48;10.65;;;;;;;;;;3553161;40;20237;-80
2021/07/21 04:45:57;;;;;;;11.00;9.73;;;;;;;;;;3553076;40;20250;-82
2021/07/21 04:48:26;;;;;;;12.65;11.32;;;;;;;;;;3569286;40;20249;-81
2021/07/21 04:51:01;;;;;;;12.13;10.25;;;;;;;;;;3553453;40;20271;-80
2021/07/21 04:53:29;;;;;;;13.80;11.32;;;;;;;;;;3553071;40;20226;-81
2021/07/21 04:55:58;;;;;;;10.98;9.65;;;;;;;;;;3553017;40;20241;-81
2021/07/21 04:58:26;;;;;;;15.88;11.75;;;;;;;;;;3553205;40;20252;-80
2021/07/21 05:01:03;;;;;;;12.70;10.73;;;;;;;;;;3551318;40;20233;-80
2021/07/21 05:03:32;;;;;;;10.88;9.38;;;;;;;;;;3552799;40;20238;-81
2021/07/21 05:06:03;;;;;;;14.32;12.20;;;;;;;;;;3569525;40;20308;-83
2021/07/21 05:08:39;;;;;;;12.43;11.07;;;;;;;;;;3561054;40;20266;-82
2021/07/21 05:11:17;;;;;;;15.77;12.00;;;;;;;;;;3561232;40;20300;-81
2021/07/21 05:13:45;;;;;;;13.20;11.75;;;;;;;;;;3569405;40;20218;-79
2021/07/21 05:16:15;;;;;;;13.07;11.63;;;;;;;;;;3553175;40;20232;-79
2021/07/21 05:18:46;;;;;;;13.40;12.00;;;;;;;;;;3551797;40;20249;-81
2021/07/21 05:21:20;;;;;;;19.63;15.13;;;;;;;;;;3556374;40;20816;-80
2021/07/21 05:23:49;;;;;;;13.82;11.57;;;;;;;;;;3557625;40;20244;-81
2021/07/21 05:26:17;;;;;;;19.05;13.27;;;;;;;;;;3552907;40;20234;-82
2021/07/21 05:29:03;;;;;;;14.32;12.02;;;;;;;;;;3552342;40;20972;-80
2021/07/21 05:31:51;;;;;;;14.55;11.75;;;;;;;;;;3545541;40;20233;-79
2021/07/21 05:34:26;;;;;;;15.13;11.45;;;;;;;;;;3553063;40;20238;-80
2021/07/21 05:37:10;;;;;;;13.75;12.35;;;;;;;;;;3552587;40;20485;-80
2021/07/21 05:39:50;;;;;;;14.50;11.70;;;;;;;;;;3568912;40;20241;-81
2021/07/21 05:42:18;;;;;;;13.95;12.50;;;;;;;;;;3552820;40;20257;-81
2021/07/21 05:44:47;;;;;;;15.07;11.38;;;;;;;;;;3552973;40;20237;-82
2021/07/21 05:47:14;;;;;;;13.45;12.05;;;;;;;;;;3552786;40;20269;-84
2021/07/21 05:49:44;;;;;;;12.93;11.27;;;;;;;;;;3551345;40;20281;-80
2021/07/21 05:52:25;;;;;;;14.55;12.13;;;;;;;;;;3552875;40;20438;-84
2021/07/21 05:54:53;;;;;;;13.52;11.95;;;;;;;;;;3552755;40;20242;-81
2021/07/21 05:57:24;;;;;;;13.20;11.73;;;;;;;;;;3550107;40;20249;-81
2021/07/21 06:00:05;;;;;;;14.35;11.77;;;;;;;;;;3551900;40;20742;-83
2021/07/21 06:02:43;;;;;;;14.63;11.88;;;;;;;;;;3552593;40;20293;-82
2021/07/21 06:05:17;;;;;;;14.20;10.82;;;;;;;;;;3549486;40;20234;-82
2021/07/21 06:08:02;;;;;;;18.25;12.13;;;;;;;;;;3550276;40;20234;-79
2021/07/21 06:11:02;;;;;;;17.23;12.73;;;;;;;;;;3528483;40;20230;-80
2021/07/21 06:13:30;;;;;;;15.90;13.30;;;;;;;;;;3551564;40;20293;-80
2021/07/21 06:16:05;;;;;;;17.20;13.93;;;;;;;;;;3552398;40;20225;-80
2021/07/21 06:18:36;;;;;;;13.88;12.40;;;;;;;;;;3550135;40;20246;-78
2021/07/21 06:21:05;;;;;;;13.18;11.85;;;;;;;;;;3565406;40;20554;-79
2021/07/21 06:23:34;;;;;;;19.10;13.82;;;;;;;;;;3549951;40;20618;-79
2021/07/21 06:26:03;;;;;;;15.40;13.25;;;;;;;;;;3564125;40;20246;-79
2021/07/21 06:28:43;;;;;;;17.08;14.43;;;;;;;;;;3566598;40;20245;-80
2021/07/21 06:31:11;;;;;;;18.65;13.23;;;;;;;;;;3550087;40;20249;-80
2021/07/21 06:33:38;;;;;;;16.85;12.27;;;;;;;;;;3554262;40;20238;-79
2021/07/21 06:36:08;;;;;;;15.85;13.85;;;;;;;;;;3543487;40;20292;-81
2021/07/21 06:38:40;;;;;;;17.90;14.60;;;;;;;;;;3551861;40;20257;-80
2021/07/21 06:41:14;;;;;;;15.73;13.25;;;;;;;;;;3551339;40;20270;-79
2021/07/21 06:43:43;;;;;;;17.30;14.70;;;;;;;;;;3551773;40;20300;-79
2021/07/21 06:46:25;;;;;;;17.65;13.43;;;;;;;;;;3552103;40;20222;-83
2021/07/21 06:49:09;;;;;;;17.13;12.32;;;;;;;;;;3553521;40;20241;-83
2021/07/21 06:51:38;;;;;;;16.02;12.30;;;;;;;;;;3551464;40;20243;-80
2021/07/21 06:54:08;;;;;;;16.77;12.73;;;;;;;;;;3555471;40;20237;-79
2021/07/21 06:57:05;;;;;;;14.80;12.07;;;;;;;;;;3543272;40;20250;-79
2021/07/21 06:59:59;;;;;;;15.80;13.23;;;;;;;;;;3543573;40;20246;-79
2021/07/21 07:02:45;;;;;;;15.88;13.00;;;;;;;;;;3543728;40;20753;-81
2021/07/21 07:05:30;;;;;;;16.35;12.48;;;;;;;;;;3553017;40;20257;-80
2021/07/21 07:08:11;;;;;;;15.85;12.15;;;;;;;;;;3556275;40;20261;-79
2021/07/21 07:11:00;;;;;;;15.25;12.02;;;;;;;;;;3557273;40;20245;-79
2021/07/21 07:13:29;;;;;;;12.65;11.35;;;;;;;;;;3552939;40;20210;-82
2021/07/21 07:15:57;;;;;;;14.68;12.75;;;;;;;;;;3553276;40;20277;-79
2021/07/21 07:18:24;;;;;;;16.10;12.90;;;;;;;;;;3552820;40;20241;-81
2021/07/21 07:20:53;;;;;;;17.67;13.30;;;;;;;;;;3554622;40;20221;-80
2021/07/21 07:23:22;;;;;;;14.48;12.98;;;;;;;;;;3553676;40;20266;-80
2021/07/21 07:25:50;;;;;;;14.68;11.10;;;;;;;;;;3553391;40;20249;-83
2021/07/21 07:28:18;;;;;;;11.85;10.65;;;;;;;;;;3553053;40;20253;-79
2021/07/21 07:30:45;;;;;;;15.02;11.32;;;;;;;;;;3553391;40;20245;-81
2021/07/21 07:33:13;;;;;;;11.60;10.48;;;;;;;;;;3555619;40;20241;-79
2021/07/21 07:35:40;;;;;;;11.80;9.90;;;;;;;;;;3561396;40;20229;-85
2021/07/21 07:38:11;;;;;;;13.80;11.60;;;;;;;;;;3563122;40;20300;-87
2021/07/21 07:40:40;;;;;;;11.85;9.90;;;;;;;;;;3563169;40;20295;-79
2021/07/21 07:43:08;;;;;;;13.05;11.45;;;;;;;;;;3563337;40;20232;-81
2021/07/21 07:45:35;;;;;;;14.25;11.05;;;;;;;;;;3563235;40;20550;-79
2021/07/21 07:48:03;;;;;;;11.50;9.45;;;;;;;;;;3563122;40;20278;-78
2021/07/21 07:50:30;;;;;;;14.85;10.68;;;;;;;;;;3563058;40;20241;-79
2021/07/21 07:52:58;;;;;;;12.40;9.10;;;;;;;;;;3554174;40;20244;-81
2021/07/21 07:55:26;;;;;;;9.88;8.68;;;;;;;;;;3552089;40;20241;-77
2021/07/21 07:57:55;;;;;;;12.55;10.68;;;;;;;;;;3554219;40;20258;-82
2021/07/21 08:00:23;;;;;;;14.95;10.77;;;;;;;;;;3558562;40;20445;-82
2021/07/21 08:02:50;;;;;;;15.27;11.48;;;;;;;;;;3557084;40;20663;-78
2021/07/21 08:05:18;;;;;;;10.88;9.52;;;;;;;;;;3561869;40;20222;-79
2021/07/21 08:07:45;;;;;;;15.13;11.05;;;;;;;;;;3562289;40;20743;-79
2021/07/21 08:10:14;;;;;;;14.93;12.23;;;;;;;;;;3551399;40;20246;-78
2021/07/21 08:12:43;;;;;;;12.02;9.00;;;;;;;;;;3552486;40;20221;-80
2021/07/21 08:15:13;;;;;;;11.35;9.15;;;;;;;;;;3552293;40;20308;-79
2021/07/21 08:17:41;;;;;;;11.57;9.80;;;;;;;;;;3552173;40;20241;-79
2021/07/21 08:20:09;;;;;;;13.20;10.38;;;;;;;;;;3562895;40;20308;-82
2021/07/21 08:22:40;;;;;;;13.13;9.85;;;;;;;;;;3561388;40;20224;-80
2021/07/21 08:25:09;;;;;;;12.98;9.68;;;;;;;;;;3558340;40;20233;-79
2021/07/21 08:27:36;;;;;;;9.80;8.80;;;;;;;;;;3552544;40;20269;-79
2021/07/21 08:30:05;;;;;;;10.98;9.20;;;;;;;;;;3552692;40;20234;-78
2021/07/21 08:32:34;;;;;;;13.82;10.65;;;;;;;;;;3552174;40;20226;-79
2021/07/21 08:35:01;;;;;;;12.98;10.73;;;;;;;;;;3552610;40;20230;-80
2021/07/21 08:37:29;;;;;;;11.10;9.90;;;;;;;;;;3552451;40;20307;-79
2021/07/21 08:39:58;;;;;;;13.13;9.93;;;;;;;;;;3552711;40;20230;-79
2021/07/21 08:42:26;;;;;;;13.00;8.45;;;;;;;;;;3560019;40;20229;-78
2021/07/21 08:44:53;;;;;;;11.13;9.52;;;;;;;;;;3553119;40;20242;-81
2021/07/21 08:47:21;;;;;;;9.30;8.32;;;;;;;;;;3552468;40;20622;-78
2021/07/21 08:49:49;;;;;;;9.40;8.45;;;;;;;;;;3552553;40;20230;-79
2021/07/21 08:59:44;;;;;;;8.68;7.80;;;;;;;;;;3548960;40;20236;-79
2021/07/21 09:02:18;;;;;;;11.35;7.50;;;;;;;;;;3554732;40;20258;-78
2021/07/21 09:11:23;;;;;;;13.18;7.25;;;;;;;;;;3591430;39;20285;-86
2021/07/21 09:13:51;;;;;;;7.70;6.80;;;;;;;;;;3591058;40;20242;-79
2021/07/21 09:16:18;;;;;;;8.30;7.28;;;;;;;;;;3587906;40;20233;-82
2021/07/21 09:18:50;;;;;;;10.75;7.50;;;;;;;;;;3601507;39;20297;-79
2021/07/21 09:21:18;;;;;;;8.88;6.82;;;;;;;;;;3594565;39;20869;-79
2021/07/21 09:23:47;;;;;;;8.10;7.20;;;;;;;;;;3594468;39;20234;-79
2021/07/21 09:26:18;;;;;;;7.13;6.43;;;;;;;;;;3592116;39;20410;-79
2021/07/21 09:28:47;;;;;;;9.15;7.57;;;;;;;;;;3592292;39;20277;-80
2021/07/21 09:31:15;;;;;;;10.80;7.85;;;;;;;;;;3592189;39;20235;-77
2021/07/21 09:33:44;;;;;;;8.85;7.47;;;;;;;;;;3591681;40;20239;-79
2021/07/21 09:36:19;;;;;;;10.48;7.75;;;;;;;;;;3592146;39;20292;-80
2021/07/21 09:38:47;;;;;;;8.55;7.25;;;;;;;;;;3592048;40;20227;-78
2021/07/21 09:41:15;;;;;;;7.97;6.63;;;;;;;;;;3591994;40;20223;-79
2021/07/21 09:43:43;;;;;;;8.55;7.15;;;;;;;;;;3591998;40;20639;-78
2021/07/21 09:46:12;;;;;;;12.80;7.13;;;;;;;;;;3592170;40;20791;-77
2021/07/21 09:48:40;;;;;;;7.82;6.72;;;;;;;;;;3592076;40;20261;-78
2021/07/21 09:51:08;;;;;;;7.78;6.72;;;;;;;;;;3592016;40;20269;-78
2021/07/21 09:53:40;;;;;;;8.85;6.70;;;;;;;;;;3592120;40;20211;-79
2021/07/21 09:56:14;;;;;;;8.82;7.50;;;;;;;;;;3583995;40;20239;-80
2021/07/21 09:58:50;;;;;;;8.25;7.45;;;;;;;;;;3592055;40;20840;-78
2021/07/21 10:01:32;;;;;;;7.78;6.97;;;;;;;;;;3592125;40;20249;-78
2021/07/21 10:04:05;;;;;;;9.50;7.22;;;;;;;;;;3590868;40;20230;-79
2021/07/21 10:06:39;;;;;;;7.30;6.60;;;;;;;;;;3583517;40;20215;-79
2021/07/21 10:09:07;;;;;;;7.05;6.38;;;;;;;;;;3588450;40;20278;-80
2021/07/21 10:11:36;;;;;;;8.52;6.47;;;;;;;;;;3590966;40;20289;-79
2021/07/21 10:14:11;;;;;;;11.15;7.28;;;;;;;;;;3586429;40;20236;-81
2021/07/21 10:16:44;;;;;;;8.45;7.25;;;;;;;;;;3589002;39;20249;-78
2021/07/21 10:19:13;;;;;;;7.72;6.85;;;;;;;;;;3587820;40;20294;-80
2021/07/21 10:21:41;;;;;;;7.95;6.63;;;;;;;;;;3586527;40;20266;-78
2021/07/21 10:24:09;;;;;;;8.50;6.45;;;;;;;;;;3587649;40;20243;-78
2021/07/21 10:26:38;;;;;;;7.18;6.47;;;;;;;;;;3576079;40;20231;-81
2021/07/21 10:29:06;;;;;;;8.32;6.72;;;;;;;;;;3587880;40;20944;-80
2021/07/21 10:31:34;;;;;;;8.18;7.30;;;;;;;;;;3585406;40;20255;-83
2021/07/21 10:34:03;;;;;;;8.30;7.18;;;;;;;;;;3586533;40;20232;-80
2021/07/21 10:36:31;;;;;;;9.13;6.80;;;;;;;;;;3581415;40;20235;-80
2021/07/21 10:38:59;;;;;;;8.73;7.88;;;;;;;;;;3572396;40;20243;-80
2021/07/21 10:41:29;;;;;;;8.90;7.32;;;;;;;;;;3584616;40;20200;-80
2021/07/21 10:43:58;;;;;;;9.10;7.28;;;;;;;;;;3581414;40;20238;-83
2021/07/21 10:46:32;;;;;;;8.27;7.32;;;;;;;;;;3586061;40;20231;-83
2021/07/21 10:49:14;;;;;;;7.35;6.50;;;;;;;;;;3586983;40;20247;-81
2021/07/21 10:51:53;;;;;;;8.32;6.60;;;;;;;;;;3581349;40;20249;-81
2021/07/21 10:54:30;;;;;;;9.27;7.18;;;;;;;;;;3588201;40;20239;-85
2021/07/21 11:00:05;;;;;;;9.10;7.97;;;;;;;;;;3586171;40;20227;-80
2021/07/21 11:02:32;;;;;;;8.52;7.60;;;;;;;;;;3583497;40;20227;-80
2021/07/21 11:05:03;;;;;;;9.65;7.93;;;;;;;;;;3590982;40;20242;-80
2021/07/21 11:07:51;;;;;;;8.32;6.90;;;;;;;;;;3590210;40;20224;-80
2021/07/21 11:10:46;;;;;;;9.60;7.30;;;;;;;;;;3579014;40;20305;-82
2021/07/21 11:13:15;;;;;;;8.30;7.00;;;;;;;;;;3546158;40;1081544;-82
2021/07/21 11:15:44;;;;;;;8.73;7.82;;;;;;;;;;3591479;40;20239;-81
2021/07/21 11:18:30;;;;;;;8.05;6.53;;;;;;;;;;3591179;40;20398;-80
2021/07/21 11:20:59;;;;;;;8.70;7.28;;;;;;;;;;3582689;40;20231;-79
2021/07/21 11:23:43;;;;;;;8.65;7.82;;;;;;;;;;3582816;40;20262;-81
2021/07/21 11:26:29;;;;;;;9.02;7.30;;;;;;;;;;3581343;40;20243;-79
2021/07/21 11:28:57;;;;;;;10.13;8.13;;;;;;;;;;3581350;40;20297;-83
2021/07/21 11:31:39;;;;;;;7.35;6.65;;;;;;;;;;3572484;40;20211;-80
2021/07/21 11:34:11;;;;;;;10.45;8.73;;;;;;;;;;3580970;40;20231;-80
2021/07/21 11:36:56;;;;;;;9.73;8.35;;;;;;;;;;3581191;40;20269;-83
2021/07/21 11:39:39;;;;;;;11.27;8.48;;;;;;;;;;3582410;40;20251;-80
2021/07/21 11:42:07;;;;;;;8.27;7.47;;;;;;;;;;3588530;40;20273;-78
2021/07/21 11:44:36;;;;;;;11.35;8.95;;;;;;;;;;3588829;40;20235;-79
2021/07/21 11:47:04;;;;;;;9.52;8.52;;;;;;;;;;3573967;40;20250;-81
2021/07/21 11:49:33;;;;;;;10.75;8.02;;;;;;;;;;3582450;40;20220;-78
2021/07/21 11:52:02;;;;;;;11.65;8.68;;;;;;;;;;3582740;40;20250;-78
2021/07/21 11:54:31;;;;;;;9.88;8.10;;;;;;;;;;3582726;40;20244;-77
2021/07/21 11:56:58;;;;;;;9.77;7.35;;;;;;;;;;3586309;40;20243;-79
2021/07/21 11:59:29;;;;;;;10.90;9.77;;;;;;;;;;3582764;40;20243;-79
2021/07/21 12:02:04;;;;;;;8.75;7.28;;;;;;;;;;3574353;40;20240;-78
2021/07/21 12:04:32;;;;;;;9.23;8.18;;;;;;;;;;3583068;40;20227;-81
2021/07/21 12:06:59;;;;;;;10.02;8.27;;;;;;;;;;3582716;40;20239;-78
2021/07/21 12:09:28;;;;;;;9.25;8.20;;;;;;;;;;3574054;40;20216;-80
2021/07/21 12:11:56;;;;;;;8.95;8.05;;;;;;;;;;3582625;40;20227;-79
2021/07/21 12:14:24;;;;;;;8.73;7.90;;;;;;;;;;3582623;40;20243;-79
2021/07/21 12:16:52;;;;;;;8.93;8.02;;;;;;;;;;3573870;40;20246;-80
2021/07/21 12:19:24;;;;;;;10.73;9.23;;;;;;;;;;3582363;40;20280;-81
2021/07/21 12:22:00;;;;;;;10.23;8.63;;;;;;;;;;3574094;40;20272;-79
2021/07/21 12:24:34;;;;;;;8.85;7.95;;;;;;;;;;3582592;40;20243;-79
2021/07/21 12:27:01;;;;;;;9.40;8.15;;;;;;;;;;3582576;40;20236;-79
2021/07/21 12:29:29;;;;;;;10.68;7.78;;;;;;;;;;3582605;40;20227;-80
2021/07/21 12:32:03;;;;;;;12.23;8.55;;;;;;;;;;3582612;40;20689;-80
2021/07/21 12:34:30;;;;;;;8.77;7.88;;;;;;;;;;3582340;40;20388;-79
2021/07/21 12:36:58;;;;;;;12.77;9.10;;;;;;;;;;3582381;40;20924;-79
2021/07/21 12:39:26;;;;;;;10.63;8.93;;;;;;;;;;3582372;40;20294;-79
2021/07/21 12:41:55;;;;;;;7.93;7.05;;;;;;;;;;3582526;40;20223;-83
2021/07/21 12:44:26;;;;;;;9.75;7.63;;;;;;;;;;3573949;40;20231;-82
2021/07/21 12:47:09;;;;;;;10.30;8.07;;;;;;;;;;3573852;40;20301;-80
2021/07/21 12:49:36;;;;;;;10.52;7.95;;;;;;;;;;3582170;40;20247;-81
2021/07/21 12:52:05;;;;;;;8.43;7.63;;;;;;;;;;3589305;40;20231;-81
2021/07/21 12:54:32;;;;;;;8.57;7.72;;;;;;;;;;3582918;40;20240;-80
2021/07/21 12:57:01;;;;;;;8.80;7.45;;;;;;;;;;3582477;40;20252;-80
2021/07/21 12:59:35;;;;;;;9.40;7.97;;;;;;;;;;3565525;40;20236;-80
2021/07/21 13:02:07;;;;;;;8.70;7.35;;;;;;;;;;3574789;40;20226;-79
2021/07/21 13:04:34;;;;;;;9.68;8.63;;;;;;;;;;3587088;39;20294;-80
2021/07/21 13:07:06;;;;;;;10.50;9.40;;;;;;;;;;3596294;39;20226;-80
2021/07/21 13:09:33;;;;;;;9.05;7.95;;;;;;;;;;3590523;40;20231;-80
2021/07/21 13:12:02;;;;;;;9.60;8.65;;;;;;;;;;3574936;40;20247;-81
2021/07/21 13:14:29;;;;;;;9.10;8.20;;;;;;;;;;3582384;40;20234;-80
2021/07/21 13:17:09;;;;;;;10.57;9.15;;;;;;;;;;3581961;40;20240;-80
2021/07/21 13:19:36;;;;;;;9.05;8.15;;;;;;;;;;3581921;40;20234;-83
2021/07/21 13:22:04;;;;;;;8.02;7.22;;;;;;;;;;3584350;40;20283;-82
2021/07/21 13:24:40;;;;;;;9.18;8.27;;;;;;;;;;3582417;40;20236;-79
2021/07/21 13:27:12;;;;;;;11.82;9.07;;;;;;;;;;3590125;40;20242;-79
2021/07/21 13:29:40;;;;;;;10.65;8.80;;;;;;;;;;3592482;39;20234;-82
2021/07/21 13:32:08;;;;;;;8.90;8.07;;;;;;;;;;3601489;39;20232;-79
2021/07/21 13:34:36;;;;;;;10.68;8.60;;;;;;;;;;3593667;39;20210;-79
2021/07/21 13:37:05;;;;;;;8.23;7.28;;;;;;;;;;3593459;39;20238;-80
2021/07/21 13:39:39;;;;;;;10.30;8.07;;;;;;;;;;3596539;39;20268;-80
2021/07/21 13:42:06;;;;;;;11.40;7.82;;;;;;;;;;3592234;40;20242;-79
2021/07/21 13:44:35;;;;;;;9.63;8.27;;;;;;;;;;3580991;40;20236;-79
2021/07/21 13:47:16;;;;;;;12.68;8.35;;;;;;;;;;3582081;40;20244;-81
2021/07/21 13:49:47;;;;;;;9.43;8.32;;;;;;;;;;3572140;39;20238;-81
2021/07/21 13:52:19;;;;;;;8.15;7.35;;;;;;;;;;3590849;40;20250;-80
2021/07/21 13:54:47;;;;;;;8.20;7.40;;;;;;;;;;3591909;39;20235;-81
2021/07/21 14:07:53;;;;;;;15.45;12.88;;;;;;;;;;3587073;39;20285;-81
2021/07/21 14:10:21;;;;;;;8.98;8.07;;;;;;;;;;3589890;40;20231;-82
2021/07/21 14:12:48;;;;;;;9.30;8.32;;;;;;;;;;3579230;40;21021;-82
2021/07/21 14:15:16;;;;;;;9.02;7.70;;;;;;;;;;3586495;39;20293;-81
2021/07/21 14:17:44;;;;;;;10.90;8.65;;;;;;;;;;3588976;40;20251;-80
2021/07/21 14:20:12;;;;;;;10.32;7.93;;;;;;;;;;3580572;40;20521;-81
2021/07/21 14:22:39;;;;;;;9.02;7.47;;;;;;;;;;3581141;40;20239;-85
2021/07/21 14:25:10;;;;;;;8.85;7.95;;;;;;;;;;3579897;40;20216;-80
2021/07/21 14:27:37;;;;;;;10.00;7.90;;;;;;;;;;3579264;40;20305;-82
2021/07/21 14:30:06;;;;;;;10.07;8.25;;;;;;;;;;3580792;40;20235;-83
2021/07/21 14:32:33;;;;;;;7.65;6.80;;;;;;;;;;3578742;40;20286;-82
2021/07/21 14:35:00;;;;;;;8.98;8.05;;;;;;;;;;3588103;40;20231;-82
2021/07/21 14:37:28;;;;;;;7.78;6.78;;;;;;;;;;3588687;40;20259;-84
2021/07/21 14:39:56;;;;;;;7.75;7.03;;;;;;;;;;3579427;40;20223;-81
2021/07/21 14:42:24;;;;;;;12.88;8.95;;;;;;;;;;3578548;40;20270;-84
2021/07/21 14:44:52;;;;;;;12.98;8.13;;;;;;;;;;3588410;40;20239;-84
2021/07/21 14:47:23;;;;;;;8.02;6.70;;;;;;;;;;3587567;40;20294;-84
2021/07/21 14:49:50;;;;;;;10.80;7.88;;;;;;;;;;3578349;40;20220;-82
2021/07/21 14:52:18;;;;;;;8.73;7.80;;;;;;;;;;3579371;40;20280;-84
2021/07/21 14:54:45;;;;;;;9.18;8.27;;;;;;;;;;3586195;40;20231;-80
2021/07/21 14:57:13;;;;;;;8.52;7.68;;;;;;;;;;3577346;40;20243;-79
2021/07/21 14:59:41;;;;;;;7.78;7.07;;;;;;;;;;3584221;40;20319;-78
2021/07/21 15:02:10;;;;;;;9.32;8.07;;;;;;;;;;3574511;40;20242;-78
2021/07/21 15:04:38;;;;;;;11.82;7.57;;;;;;;;;;3585313;40;20228;-78
2021/07/21 15:07:05;;;;;;;11.38;8.65;;;;;;;;;;3578945;40;20239;-84
2021/07/21 15:09:34;;;;;;;10.27;9.23;;;;;;;;;;3589707;40;20540;-81
2021/07/21 15:12:01;;;;;;;10.35;8.45;;;;;;;;;;3589875;40;20251;-81
2021/07/21 15:14:29;;;;;;;9.00;8.10;;;;;;;;;;3590717;40;20281;-78
2021/07/21 15:16:57;;;;;;;9.00;8.00;;;;;;;;;;3582137;40;20301;-82
2021/07/21 15:19:25;;;;;;;17.23;12.38;;;;;;;;;;3571853;40;20235;-79
2021/07/21 15:21:52;;;;;;;8.13;7.32;;;;;;;;;;3618277;22;20299;-41
2021/07/21 15:24:19;;;;;;;8.98;8.18;;;;;;;;;;3586990;40;20246;-41
2021/07/21 15:26:47;;;;;;;9.35;8.43;;;;;;;;;;3578169;40;20238;-41